Impacts TAF Board INFO
IDs:

KBWI - Baltimore-Washington, MD, US

Issued at 0527 UTC 03 Dec 2016
Updated at 0642 UTC 03 Dec 2016
Potential Impact None Slight Moderate High
Time0554Z 03/07Z 03/08Z 03/09Z 03/10Z 03/11Z 03/12Z 03/13Z 03/14Z 03/15Z 03/16Z 03/17Z 03/18Z 03/19Z
Type OBS PRVL PRVL PRVL PRVL PRVL PRVL PRVL PRVL PRVL PRVL PRVL PRVL PRVL
VIS 10 >6 >6 >6 >6 >6 >6 >6 >6 >6 >6 >6 >6 >6
CIG 50 50 50 50 50 50 50 50 50 50 50 50 50 50
Cover BKN BKN BKN BKN BKN BKN BKN BKN BKN BKN BKN BKN BKN BKN
FltCat VFR VFR VFR VFR VFR VFR VFR VFR VFR VFR VFR VFR VFR VFR
WX -- -- -- -- -- -- -- -- -- -- -- -- -- --
WDir 270 270 270 270 270 270 270 270 270 270 300 300 300 300
WSpd 11 9 9 9 9 9 9 9 9 9 13 13 13 13
WGst 19 -- -- -- -- -- -- -- -- -- 22 22 22 22

Raw TAF
KBWI 030527Z 0306/0412 27009KT P6SM BKN050
  FM031600 30013G22KT P6SM BKN050
  FM032300 28005KT P6SM SCT050 SCT200


Raw METAR
KBWI 030554Z 27011G19KT 10SM BKN050 06/M02 A3010 RMK AO2 SLP193 T00611022 10067 20056 51006
KBWI 030454Z 26010KT 10SM BKN055 06/M03 A3009 RMK AO2 SLP190 T00611028 401060039
KBWI 030354Z 25008KT 10SM BKN060 06/M03 A3009 RMK AO2 SLP190 T00561028

METAR Board
Radar Display
Forecast Discussion